FTU12FS ZUUU-ZUGH
Flight info
| Callsign | FTU12FS |
|---|---|
| Flight time | N/A |
| Altitude | 6900 |
| Route | UU461 DCT UU408 DCT UU403 DCT 305903N1041631E 305714N1041915E |
| Aircraft | SR20/L-SDGRY/S |
Departure
| Time | 2026-05-05 06:37 |
|---|---|
| Airport | Chengdu Shuangliu International Airport (ZUUU) |
Arrival
| Time | N/A |
|---|---|
| Airport | Guanghan Airport (ZUGH) |
| Time | Latitude | Longitude | Altitude | Speed | Heading |
|---|---|---|---|---|---|
| 2026-05-05 06:31 | 30.56342 | 103.94597 | 1633 ft | 0 kts | 203° |
| 2026-05-05 06:32 | 30.56369 | 103.94610 | 1633 ft | 10 kts | 19° |
| 2026-05-05 06:33 | 30.56447 | 103.94612 | 1633 ft | 13 kts | 284° |
| 2026-05-05 06:33 | 30.56474 | 103.94531 | 1633 ft | 6 kts | 278° |
| 2026-05-05 06:33 | 30.56476 | 103.94496 | 1633 ft | 0 kts | 254° |
| 2026-05-05 06:33 | 30.56491 | 103.94474 | 1633 ft | 8 kts | 299° |
| 2026-05-05 06:34 | 30.56533 | 103.94363 | 1633 ft | 20 kts | 289° |
| 2026-05-05 06:34 | 30.56577 | 103.94231 | 1633 ft | 0 kts | 291° |
| 2026-05-05 06:35 | 30.56592 | 103.94187 | 1633 ft | 20 kts | 290° |
| 2026-05-05 06:36 | 30.56722 | 103.94176 | 1633 ft | 38 kts | 22° |
| 2026-05-05 06:36 | 30.57168 | 103.94385 | 1634 ft | 94 kts | 21° |
| 2026-05-05 06:36 | 30.57811 | 103.94700 | 1836 ft | 102 kts | 34° |
| 2026-05-05 06:36 | 30.58547 | 103.95122 | 1853 ft | 132 kts | 27° |
| 2026-05-05 06:37 | 30.59487 | 103.95406 | 1887 ft | 151 kts | 358° |
| 2026-05-05 06:37 | 30.60518 | 103.95084 | 2088 ft | 153 kts | 340° |
| 2026-05-05 06:37 | 30.61510 | 103.94624 | 2325 ft | 152 kts | 339° |
| 2026-05-05 06:37 | 30.62485 | 103.94159 | 2559 ft | 151 kts | 338° |
| 2026-05-05 06:38 | 30.63453 | 103.93698 | 2794 ft | 149 kts | 339° |
| 2026-05-05 06:38 | 30.64406 | 103.93245 | 3027 ft | 148 kts | 339° |
| 2026-05-05 06:38 | 30.65360 | 103.92790 | 3260 ft | 148 kts | 339° |
| 2026-05-05 06:38 | 30.66315 | 103.92336 | 3497 ft | 147 kts | 339° |
| 2026-05-05 06:39 | 30.67261 | 103.91887 | 3735 ft | 146 kts | 339° |
| 2026-05-05 06:39 | 30.68205 | 103.91437 | 3959 ft | 146 kts | 338° |
| 2026-05-05 06:39 | 30.69179 | 103.90974 | 4016 ft | 157 kts | 339° |
| 2026-05-05 06:39 | 30.70227 | 103.90477 | 4027 ft | 168 kts | 339° |